createdAt,value
2017-12-23T00:00:18.615Z,95511.92
2017-12-23T00:02:46.401Z,95504.09
2017-12-23T00:05:14.153Z,95496.89
2017-12-23T00:07:41.918Z,95503.70
2017-12-23T00:10:09.705Z,95496.96
2017-12-23T00:12:37.380Z,95491.48
2017-12-23T00:15:05.158Z,95488.72
2017-12-23T00:17:32.849Z,95491.08
2017-12-23T00:20:00.633Z,95487.23
2017-12-23T00:22:28.351Z,95483.09
2017-12-23T00:24:56.056Z,95483.50
2017-12-23T00:27:23.780Z,95475.53
2017-12-23T00:29:51.475Z,95479.38
2017-12-23T00:32:19.202Z,95475.91
2017-12-23T00:34:46.886Z,95478.61
2017-12-23T00:37:14.613Z,95470.44
2017-12-23T00:39:42.308Z,95475.70
2017-12-23T00:42:09.995Z,95484.02
2017-12-23T00:44:37.755Z,95475.97
2017-12-23T00:47:05.450Z,95492.57
2017-12-23T00:49:33.142Z,95480.89
2017-12-23T00:52:00.873Z,95485.19
2017-12-23T00:54:28.622Z,95489.10
2017-12-23T00:56:56.401Z,95472.84
2017-12-23T00:59:24.072Z,95467.47
2017-12-23T01:01:51.778Z,95479.27
2017-12-23T01:04:19.455Z,95473.37
2017-12-23T01:06:47.236Z,95478.44
2017-12-23T01:09:14.949Z,95476.98
2017-12-23T01:11:42.607Z,95488.42
2017-12-23T01:14:10.328Z,95484.04
2017-12-23T01:16:38.089Z,95484.67
2017-12-23T01:19:05.790Z,95484.53
2017-12-23T01:21:34.190Z,95483.45
2017-12-23T01:24:01.896Z,95481.16
2017-12-23T01:26:29.624Z,95485.16
2017-12-23T01:28:57.325Z,95485.29
2017-12-23T01:31:25.078Z,95484.61
2017-12-23T01:33:52.797Z,95464.77
2017-12-23T01:36:20.504Z,95474.75
2017-12-23T01:38:48.247Z,95481.16
2017-12-23T01:41:16.016Z,95476.64
2017-12-23T01:43:43.743Z,95470.95
2017-12-23T01:46:11.423Z,95464.87
2017-12-23T01:48:39.130Z,95475.53
2017-12-23T01:51:06.879Z,95467.70
2017-12-23T01:53:34.744Z,95467.77
2017-12-23T01:56:02.435Z,95465.87
2017-12-23T01:58:30.244Z,95464.53
2017-12-23T02:00:58.283Z,95461.56
2017-12-23T02:03:25.969Z,95462.17
2017-12-23T02:05:53.679Z,95474.86
2017-12-23T02:08:21.363Z,95476.28
2017-12-23T02:10:49.119Z,95462.23
2017-12-23T02:13:16.814Z,95477.97
2017-12-23T02:15:44.545Z,95477.53
2017-12-23T02:18:12.277Z,95478.34
2017-12-23T02:20:39.993Z,95460.55
2017-12-23T02:23:07.709Z,95468.85
2017-12-23T02:25:35.463Z,95468.85
2017-12-23T02:28:03.171Z,95480.06
2017-12-23T02:30:31.050Z,95465.95
2017-12-23T02:32:58.778Z,95469.12
2017-12-23T02:35:26.684Z,95465.48
2017-12-23T02:37:54.350Z,95466.66
2017-12-23T02:40:22.097Z,95459.56
2017-12-23T02:42:49.839Z,95475.56
2017-12-23T02:45:17.591Z,95456.79
2017-12-23T02:47:45.358Z,95457.56
2017-12-23T02:50:13.076Z,95455.60
2017-12-23T02:52:40.779Z,95464.70
2017-12-23T02:55:09.415Z,95448.30
2017-12-23T02:57:37.088Z,95448.58
2017-12-23T03:00:04.888Z,95450.25
2017-12-23T03:02:32.696Z,95447.14
2017-12-23T03:05:00.461Z,95452.48
2017-12-23T03:07:28.238Z,95429.86
2017-12-23T03:09:55.944Z,95427.28
2017-12-23T03:12:23.652Z,95434.55
2017-12-23T03:14:51.324Z,95425.66
2017-12-23T03:17:19.060Z,95433.00
2017-12-23T03:19:46.788Z,95431.31
2017-12-23T03:22:14.529Z,95431.35
2017-12-23T03:24:42.286Z,95417.38
2017-12-23T03:27:09.999Z,95416.30
2017-12-23T03:29:37.710Z,95406.92
2017-12-23T03:32:05.431Z,95413.03
2017-12-23T03:34:33.104Z,95410.66
2017-12-23T03:37:00.806Z,95403.03
2017-12-23T03:39:28.564Z,95414.98
2017-12-23T03:41:56.326Z,95405.89
2017-12-23T03:44:23.993Z,95408.23
2017-12-23T03:46:51.718Z,95415.77
2017-12-23T03:49:19.443Z,95414.82
2017-12-23T03:51:47.113Z,95414.89
2017-12-23T03:54:14.854Z,95400.44
2017-12-23T03:56:42.615Z,95409.92
2017-12-23T03:59:10.328Z,95410.52
2017-12-23T04:01:38.049Z,95398.52
2017-12-23T04:04:05.802Z,95386.42
2017-12-23T04:06:33.575Z,95390.95
2017-12-23T04:09:01.321Z,95388.38
2017-12-23T04:11:29.130Z,95392.24
2017-12-23T04:13:56.867Z,95393.39
2017-12-23T04:16:24.570Z,95386.21
2017-12-23T04:18:52.324Z,95384.43
2017-12-23T04:21:20.045Z,95381.98
2017-12-23T04:23:47.734Z,95374.75
2017-12-23T04:26:15.469Z,95384.91
2017-12-23T04:28:43.169Z,95393.68
2017-12-23T04:31:11.457Z,95387.69
2017-12-23T04:33:39.216Z,95379.98
2017-12-23T04:36:06.988Z,95381.79
2017-12-23T04:38:34.674Z,95385.58
2017-12-23T04:41:02.394Z,95384.63
2017-12-23T04:43:30.136Z,95384.70
2017-12-23T04:45:57.807Z,95378.57
2017-12-23T04:48:25.554Z,95376.18
2017-12-23T04:50:53.214Z,95366.41
2017-12-23T04:53:20.964Z,95368.55
2017-12-23T04:55:49.340Z,95346.56
2017-12-23T04:58:17.279Z,95353.35
2017-12-23T05:00:44.953Z,95352.09
2017-12-23T05:03:12.709Z,95360.59
2017-12-23T05:05:40.413Z,95345.36
2017-12-23T05:08:08.215Z,95334.56
2017-12-23T05:10:35.966Z,95335.38
2017-12-23T05:13:03.648Z,95344.88
2017-12-23T05:15:31.389Z,95348.45
2017-12-23T05:17:59.185Z,95342.41
2017-12-23T05:20:26.987Z,95350.99
2017-12-23T05:22:54.698Z,95355.97
2017-12-23T05:25:23.665Z,95361.67
2017-12-23T05:27:51.362Z,95366.80
2017-12-23T05:30:19.226Z,95370.09
2017-12-23T05:32:46.982Z,95380.84
2017-12-23T05:35:14.705Z,95385.85
2017-12-23T05:37:42.394Z,95393.20
2017-12-23T05:40:11.446Z,95380.14
2017-12-23T05:42:39.168Z,95376.22
2017-12-23T05:45:07.147Z,95379.48
2017-12-23T05:47:34.890Z,95377.97
2017-12-23T05:50:02.614Z,95374.23
2017-12-23T05:52:30.342Z,95372.05
2017-12-23T05:54:58.014Z,95379.34
2017-12-23T05:57:25.773Z,95388.59
2017-12-23T05:59:53.524Z,95384.47
2017-12-23T06:02:21.255Z,95389.59
2017-12-23T06:04:49.017Z,95376.68
2017-12-23T06:07:16.733Z,95374.83
2017-12-23T06:09:44.506Z,95375.23
2017-12-23T06:12:12.242Z,95378.58
2017-12-23T06:14:40.094Z,95383.14
2017-12-23T06:17:07.810Z,95381.95
2017-12-23T06:19:35.567Z,95382.23
2017-12-23T06:22:03.304Z,95383.46
2017-12-23T06:24:31.001Z,95383.52
2017-12-23T06:26:58.758Z,95395.90
2017-12-23T06:29:26.853Z,95395.22
2017-12-23T06:31:54.611Z,95376.98
2017-12-23T06:34:22.392Z,95369.67
2017-12-23T06:36:50.164Z,95370.97
2017-12-23T06:39:17.927Z,95381.84
2017-12-23T06:41:45.654Z,95382.45
2017-12-23T06:44:13.430Z,95387.25
2017-12-23T06:46:41.180Z,95375.55
2017-12-23T06:49:08.877Z,95372.24
2017-12-23T06:51:36.605Z,95363.01
2017-12-23T06:54:04.388Z,95371.19
2017-12-23T06:56:32.209Z,95353.05
2017-12-23T06:58:59.898Z,95340.91
2017-12-23T07:01:27.650Z,95367.92
2017-12-23T07:03:55.374Z,95361.98
2017-12-23T07:06:23.105Z,95348.36
2017-12-23T07:08:50.851Z,95356.42
2017-12-23T07:11:18.592Z,95348.83
2017-12-23T07:13:46.340Z,95356.10
2017-12-23T07:16:14.044Z,95351.99
2017-12-23T07:18:41.812Z,95366.59
2017-12-23T07:21:09.581Z,95375.06
2017-12-23T07:23:37.344Z,95371.26
2017-12-23T07:26:05.158Z,95382.60
2017-12-23T07:28:32.931Z,95381.08
2017-12-23T07:31:00.905Z,95384.26
2017-12-23T07:33:28.643Z,95397.25
2017-12-23T07:35:56.392Z,95403.54
2017-12-23T07:38:24.153Z,95408.62
2017-12-23T07:40:51.919Z,95410.33
2017-12-23T07:43:19.672Z,95393.16
2017-12-23T07:45:47.366Z,95398.26
2017-12-23T07:48:15.149Z,95403.05
2017-12-23T07:50:42.846Z,95417.83
2017-12-23T07:53:10.724Z,95413.81
2017-12-23T07:55:38.466Z,95419.09
2017-12-23T07:58:06.161Z,95410.70
2017-12-23T08:00:33.956Z,95412.20
2017-12-23T08:03:01.704Z,95414.22
2017-12-23T08:05:29.400Z,95405.72
2017-12-23T08:07:57.161Z,95405.03
2017-12-23T08:10:24.922Z,95407.36
2017-12-23T08:12:52.721Z,95404.69
2017-12-23T08:15:20.528Z,95417.11
2017-12-23T08:17:48.262Z,95420.73
2017-12-23T08:20:16.060Z,95402.08
2017-12-23T08:22:43.865Z,95420.87
2017-12-23T08:25:11.576Z,95430.65
2017-12-23T08:27:39.349Z,95432.03
2017-12-23T08:30:07.017Z,95436.70
2017-12-23T08:32:34.757Z,95443.72
2017-12-23T08:35:02.524Z,95442.02
2017-12-23T08:37:30.450Z,95427.84
2017-12-23T08:39:58.200Z,95436.45
2017-12-23T08:42:25.936Z,95433.93
2017-12-23T08:44:53.670Z,95429.38
2017-12-23T08:47:21.480Z,95430.54
2017-12-23T08:49:49.193Z,95439.74
2017-12-23T08:52:16.978Z,95446.73
2017-12-23T08:54:44.726Z,95441.73
2017-12-23T08:57:12.513Z,95442.27
2017-12-23T08:59:40.188Z,95443.14
2017-12-23T09:02:07.955Z,95453.80
2017-12-23T09:04:36.708Z,95450.02
2017-12-23T09:07:04.478Z,95460.45
2017-12-23T09:09:32.299Z,95453.45
2017-12-23T09:12:00.126Z,95458.28
2017-12-23T09:14:28.013Z,95452.42
2017-12-23T09:16:56.044Z,95452.88
2017-12-23T09:19:23.850Z,95455.75
2017-12-23T09:21:51.690Z,95445.71
2017-12-23T09:24:19.478Z,95444.25
2017-12-23T09:26:47.183Z,95449.89
2017-12-23T09:29:14.977Z,95452.97
2017-12-23T09:31:42.720Z,95451.91
2017-12-23T09:34:10.485Z,95441.13
2017-12-23T09:36:39.122Z,95444.14
2017-12-23T09:39:06.880Z,95438.86
2017-12-23T09:41:34.698Z,95441.06
2017-12-23T09:44:02.521Z,95452.55
2017-12-23T09:46:30.270Z,95438.06
2017-12-23T09:48:58.024Z,95439.82
2017-12-23T09:51:25.942Z,95454.50
2017-12-23T09:53:53.710Z,95438.43
2017-12-23T09:56:21.476Z,95433.99
2017-12-23T09:58:49.246Z,95441.10
2017-12-23T10:01:17.026Z,95443.66
2017-12-23T10:03:44.978Z,95451.13
2017-12-23T10:06:12.735Z,95434.76
2017-12-23T10:08:40.441Z,95442.70
2017-12-23T10:11:08.245Z,95414.03
2017-12-23T10:13:36.079Z,95422.70
2017-12-23T10:16:03.846Z,95432.69
2017-12-23T10:18:31.564Z,95433.42
2017-12-23T10:20:59.380Z,95429.92
2017-12-23T10:23:27.094Z,95425.29
2017-12-23T10:25:54.846Z,95427.69
2017-12-23T10:28:22.555Z,95419.80
2017-12-23T10:30:50.337Z,95412.97
2017-12-23T10:33:18.106Z,95422.97
2017-12-23T10:35:45.877Z,95413.36
2017-12-23T10:38:13.572Z,95410.45
2017-12-23T10:40:41.394Z,95422.08
2017-12-23T10:43:09.149Z,95415.01
2017-12-23T10:45:36.956Z,95421.39
2017-12-23T10:48:04.649Z,95411.14
2017-12-23T10:50:32.388Z,95406.20
2017-12-23T10:53:00.148Z,95411.03
2017-12-23T10:55:27.875Z,95407.85
2017-12-23T10:57:55.602Z,95416.75
2017-12-23T11:00:23.366Z,95428.47
2017-12-23T11:02:51.224Z,95408.06
2017-12-23T11:05:19.009Z,95400.58
2017-12-23T11:07:46.829Z,95394.36
2017-12-23T11:10:14.571Z,95388.63
2017-12-23T11:12:42.409Z,95387.11
2017-12-23T11:15:11.109Z,95384.52
2017-12-23T11:17:38.904Z,95391.58
2017-12-23T11:20:06.642Z,95386.65
2017-12-23T11:22:34.420Z,95361.85
2017-12-23T11:25:02.182Z,95375.49
2017-12-23T11:27:30.633Z,95373.94
2017-12-23T11:29:58.404Z,95371.99
2017-12-23T11:32:26.520Z,95375.27
2017-12-23T11:34:54.841Z,95371.14
2017-12-23T11:37:24.851Z,95376.41
2017-12-23T11:39:52.571Z,95377.67
2017-12-23T11:42:20.329Z,95393.00
2017-12-23T11:44:48.039Z,95376.86
2017-12-23T11:47:16.583Z,95360.38
2017-12-23T11:49:44.373Z,95361.77
2017-12-23T11:52:12.143Z,95357.20
2017-12-23T11:54:39.921Z,95362.19
2017-12-23T11:57:07.649Z,95354.34
2017-12-23T11:59:41.137Z,95356.80
2017-12-23T12:02:08.888Z,95355.44
2017-12-23T12:04:36.732Z,95347.21
2017-12-23T12:07:04.473Z,95361.36
2017-12-23T12:09:32.215Z,95344.22
2017-12-23T12:11:59.931Z,95351.73
2017-12-23T12:14:27.675Z,95359.94
2017-12-23T12:16:55.424Z,95365.06
2017-12-23T12:19:23.346Z,95356.65
2017-12-23T12:21:51.194Z,95354.78
2017-12-23T12:24:18.944Z,95362.92
2017-12-23T12:26:46.741Z,95368.50
2017-12-23T12:29:16.489Z,95375.34
2017-12-23T12:31:44.268Z,95369.86
2017-12-23T12:34:12.042Z,95365.72
2017-12-23T12:36:39.787Z,95363.94
2017-12-23T12:39:07.505Z,95366.39
2017-12-23T12:41:35.335Z,95375.88
2017-12-23T12:44:03.105Z,95370.70
2017-12-23T12:46:31.459Z,95361.13
2017-12-23T12:49:00.271Z,95370.39
2017-12-23T12:51:28.020Z,95375.84
2017-12-23T12:53:55.767Z,95367.77
2017-12-23T12:56:23.550Z,95373.75
2017-12-23T12:58:51.286Z,95375.42
2017-12-23T13:01:19.034Z,95366.23
2017-12-23T13:03:46.718Z,95357.42
2017-12-23T13:06:14.573Z,95356.54
2017-12-23T13:08:42.297Z,95357.18
2017-12-23T13:11:10.030Z,95355.50
2017-12-23T13:13:37.831Z,95350.73
2017-12-23T13:16:05.548Z,95348.77
2017-12-23T13:18:34.540Z,95358.80
2017-12-23T13:21:02.373Z,95343.63
2017-12-23T13:23:31.314Z,95345.13
2017-12-23T13:25:59.129Z,95350.64
2017-12-23T13:28:26.864Z,95349.58
2017-12-23T13:30:55.527Z,95346.21
2017-12-23T13:33:23.322Z,95349.60
2017-12-23T13:35:51.907Z,95341.34
2017-12-23T13:38:19.727Z,95340.59
2017-12-23T13:40:48.144Z,95332.95
2017-12-23T13:43:17.820Z,95333.84
2017-12-23T13:45:45.572Z,95338.45
2017-12-23T13:48:13.338Z,95353.14
2017-12-23T13:50:41.174Z,95346.42
2017-12-23T13:53:08.999Z,95331.56
2017-12-23T13:55:36.799Z,95350.39
2017-12-23T13:58:04.563Z,95351.10
2017-12-23T14:00:32.385Z,95344.89
2017-12-23T14:03:00.138Z,95361.69
2017-12-23T14:05:27.912Z,95348.62
2017-12-23T14:07:55.779Z,95359.45
2017-12-23T14:10:23.582Z,95363.62
2017-12-23T14:12:51.372Z,95372.49
2017-12-23T14:15:19.134Z,95370.55
2017-12-23T14:17:48.101Z,95374.64
2017-12-23T14:20:15.937Z,95365.59
2017-12-23T14:22:43.699Z,95364.15
2017-12-23T14:25:11.552Z,95362.20
2017-12-23T14:27:39.308Z,95369.48
2017-12-23T14:32:41.071Z,95361.77
2017-12-23T14:35:09.629Z,95361.61
2017-12-23T14:37:37.364Z,95360.80
2017-12-23T14:40:05.220Z,95355.47
2017-12-23T14:42:33.052Z,95364.94
2017-12-23T14:45:01.939Z,95365.39
2017-12-23T14:47:29.769Z,95361.44
2017-12-23T14:49:57.525Z,95364.53
2017-12-23T14:52:25.649Z,95373.26
2017-12-23T14:54:53.413Z,95379.71
2017-12-23T14:57:21.190Z,95367.36
2017-12-23T14:59:48.974Z,95371.80
2017-12-23T15:02:16.809Z,95372.13
2017-12-23T15:04:44.521Z,95382.34
2017-12-23T15:07:12.291Z,95382.44
2017-12-23T15:09:41.662Z,95379.69
2017-12-23T15:12:09.522Z,95380.51
2017-12-23T15:14:37.264Z,95369.86
2017-12-23T15:17:04.989Z,95385.74
2017-12-23T15:19:32.816Z,95381.19
2017-12-23T15:22:00.616Z,95386.66
2017-12-23T15:24:28.512Z,95388.38
2017-12-23T15:26:56.474Z,95393.73
2017-12-23T15:29:25.103Z,95402.30
2017-12-23T15:31:52.906Z,95385.67
2017-12-23T15:34:20.650Z,95390.10
2017-12-23T15:36:48.577Z,95385.57
2017-12-23T15:39:16.274Z,95382.53
2017-12-23T15:41:44.062Z,95397.20
2017-12-23T15:44:11.806Z,95380.26
2017-12-23T15:46:39.528Z,95393.79
2017-12-23T15:49:07.321Z,95381.78
2017-12-23T15:51:35.024Z,95385.02
2017-12-23T15:54:02.715Z,95389.09
2017-12-23T15:56:30.523Z,95385.74
2017-12-23T15:58:59.470Z,95374.61
2017-12-23T16:01:27.542Z,95381.74
2017-12-23T16:03:55.305Z,95382.84
2017-12-23T16:06:23.094Z,95384.23
2017-12-23T16:08:50.935Z,95374.25
2017-12-23T16:11:18.708Z,95372.72
2017-12-23T16:13:46.490Z,95359.65
2017-12-23T16:16:14.236Z,95366.75
2017-12-23T16:18:42.863Z,95361.83
2017-12-23T16:21:10.637Z,95362.23
2017-12-23T16:23:38.462Z,95373.20
2017-12-23T16:26:06.201Z,95379.33
2017-12-23T16:28:33.954Z,95373.85
2017-12-23T16:31:01.692Z,95381.83
2017-12-23T16:33:29.451Z,95376.48
2017-12-23T16:35:57.224Z,95366.98
2017-12-23T16:38:24.972Z,95385.61
2017-12-23T16:40:52.806Z,95376.67
2017-12-23T16:43:20.567Z,95385.34
2017-12-23T16:45:48.355Z,95387.19
2017-12-23T16:48:16.164Z,95390.56
2017-12-23T16:50:43.947Z,95386.55
2017-12-23T16:53:11.691Z,95387.02
2017-12-23T16:55:39.426Z,95377.08
2017-12-23T16:58:07.183Z,95380.23
2017-12-23T17:00:34.883Z,95387.21
2017-12-23T17:03:02.646Z,95373.70
2017-12-23T17:05:30.408Z,95374.91
2017-12-23T17:07:58.128Z,95375.61
2017-12-23T17:10:25.895Z,95373.77
2017-12-23T17:12:53.664Z,95372.03
2017-12-23T17:15:21.355Z,95374.58
2017-12-23T17:17:49.115Z,95380.84
2017-12-23T17:20:16.814Z,95363.56
2017-12-23T17:22:44.567Z,95374.20
2017-12-23T17:25:12.324Z,95370.11
2017-12-23T17:27:40.040Z,95367.47
2017-12-23T17:30:19.566Z,95364.75
2017-12-23T17:32:47.364Z,95371.74
2017-12-23T17:35:15.097Z,95383.95
2017-12-23T17:37:42.798Z,95374.81
2017-12-23T17:40:10.554Z,95374.70
2017-12-23T17:42:38.324Z,95381.01
2017-12-23T17:45:06.049Z,95382.37
2017-12-23T17:47:33.828Z,95372.16
2017-12-23T17:50:01.544Z,95370.47
2017-12-23T17:52:29.331Z,95379.94
2017-12-23T17:54:57.200Z,95370.45
2017-12-23T17:57:25.081Z,95367.00
2017-12-23T17:59:52.845Z,95364.14
2017-12-23T18:02:20.628Z,95356.56
2017-12-23T18:04:48.356Z,95353.55
2017-12-23T18:07:16.047Z,95363.30
2017-12-23T18:09:43.821Z,95351.98
2017-12-23T18:12:11.538Z,95353.18
2017-12-23T18:14:40.283Z,95359.14
2017-12-23T18:17:08.081Z,95373.40
2017-12-23T18:19:35.762Z,95363.53
2017-12-23T18:22:03.560Z,95373.48
2017-12-23T18:24:31.285Z,95381.14
2017-12-23T18:26:59.106Z,95374.45
2017-12-23T18:29:26.913Z,95380.88
2017-12-23T18:31:54.906Z,95379.38
2017-12-23T18:34:24.691Z,95367.55
2017-12-23T18:36:52.481Z,95379.63
2017-12-23T18:39:20.280Z,95379.65
2017-12-23T18:41:48.126Z,95378.23
2017-12-23T18:44:15.866Z,95382.37
2017-12-23T18:46:43.682Z,95371.14
2017-12-23T18:49:11.775Z,95380.28
2017-12-23T18:51:39.600Z,95371.41
2017-12-23T18:54:08.384Z,95371.99
2017-12-23T18:56:37.320Z,95372.11
2017-12-23T18:59:05.086Z,95369.70
2017-12-23T19:01:32.895Z,95364.70
2017-12-23T19:04:00.775Z,95367.08
2017-12-23T19:06:28.496Z,95378.02
2017-12-23T19:08:56.213Z,95368.11
2017-12-23T19:11:24.006Z,95366.83
2017-12-23T19:13:51.713Z,95370.77
2017-12-23T19:16:31.103Z,95366.83
2017-12-23T19:18:58.884Z,95358.05
2017-12-23T19:21:27.023Z,95355.97
2017-12-23T19:23:54.907Z,95366.73
2017-12-23T19:26:22.641Z,95358.81
2017-12-23T19:28:50.412Z,95363.36
2017-12-23T19:31:19.392Z,95366.00
2017-12-23T19:33:47.145Z,95369.80
2017-12-23T19:36:14.990Z,95364.65
2017-12-23T19:38:42.842Z,95365.70
2017-12-23T19:41:11.010Z,95361.84
2017-12-23T19:43:38.751Z,95358.50
2017-12-23T19:46:06.547Z,95353.89
2017-12-23T19:48:34.320Z,95365.94
2017-12-23T19:51:02.163Z,95350.47
2017-12-23T19:53:29.994Z,95359.84
2017-12-23T19:55:57.764Z,95352.11
2017-12-23T19:58:25.864Z,95361.80
2017-12-23T20:00:53.584Z,95358.73
2017-12-23T20:03:21.387Z,95361.63
2017-12-23T20:05:49.239Z,95363.05
2017-12-23T20:08:17.050Z,95364.75
2017-12-23T20:10:44.820Z,95351.05
2017-12-23T20:13:12.577Z,95372.22
2017-12-23T20:15:40.400Z,95371.48
2017-12-23T20:18:08.149Z,95364.70
2017-12-23T20:20:35.963Z,95363.69
2017-12-23T20:23:03.764Z,95363.34
2017-12-23T20:25:31.522Z,95357.99
2017-12-23T20:27:59.355Z,95372.60
2017-12-23T20:30:27.112Z,95360.23
2017-12-23T20:32:54.818Z,95360.70
2017-12-23T20:35:22.573Z,95354.16
2017-12-23T20:37:50.354Z,95360.91
2017-12-23T20:40:18.132Z,95355.67
2017-12-23T20:42:45.960Z,95352.81
2017-12-23T20:45:13.708Z,95353.83
2017-12-23T20:47:41.444Z,95357.47
2017-12-23T20:50:09.232Z,95360.56
2017-12-23T20:52:37.040Z,95361.59
2017-12-23T20:55:05.224Z,95361.45
2017-12-23T20:57:32.998Z,95359.08
2017-12-23T21:00:00.770Z,95362.34
2017-12-23T21:02:28.654Z,95361.67
2017-12-23T21:04:56.375Z,95361.31
2017-12-23T21:07:24.133Z,95361.07
2017-12-23T21:09:53.190Z,95370.04
2017-12-23T21:12:20.939Z,95374.08
2017-12-23T21:14:48.860Z,95373.16
2017-12-23T21:17:16.654Z,95382.23
2017-12-23T21:19:44.398Z,95374.00
2017-12-23T21:22:12.162Z,95377.79
2017-12-23T21:24:40.051Z,95377.31
2017-12-23T21:27:07.826Z,95374.94
2017-12-23T21:29:35.621Z,95363.58
2017-12-23T21:32:03.387Z,95366.48
2017-12-23T21:34:31.130Z,95368.46
2017-12-23T21:36:58.897Z,95370.81
2017-12-23T21:39:26.617Z,95373.79
2017-12-23T21:41:54.386Z,95371.00
2017-12-23T21:44:22.181Z,95377.54
2017-12-23T21:46:49.968Z,95378.67
2017-12-23T21:49:17.665Z,95379.19
2017-12-23T21:51:45.553Z,95385.91
2017-12-23T21:54:13.400Z,95378.84
2017-12-23T21:56:41.131Z,95379.81
2017-12-23T21:59:08.902Z,95381.13
2017-12-23T22:01:36.922Z,95389.11
2017-12-23T22:04:05.382Z,95383.38
2017-12-23T22:06:33.394Z,95392.79
2017-12-23T22:09:01.340Z,95395.71
2017-12-23T22:11:29.537Z,95401.34
2017-12-23T22:13:57.460Z,95395.44
2017-12-23T22:16:25.258Z,95391.44
2017-12-23T22:18:53.182Z,95388.16
2017-12-23T22:21:20.941Z,95389.55
2017-12-23T22:23:48.682Z,95400.47
2017-12-23T22:26:16.416Z,95400.69
2017-12-23T22:28:44.278Z,95394.69
2017-12-23T22:31:12.013Z,95404.10
2017-12-23T22:33:39.774Z,95401.94
2017-12-23T22:36:07.501Z,95392.05
2017-12-23T22:38:35.293Z,95387.92
2017-12-23T22:41:03.054Z,95390.76
2017-12-23T22:43:30.759Z,95391.25
2017-12-23T22:45:58.530Z,95391.53
2017-12-23T22:48:26.249Z,95392.92
2017-12-23T22:50:54.013Z,95395.16
2017-12-23T22:53:21.790Z,95394.13
2017-12-23T22:55:49.484Z,95388.19
2017-12-23T22:58:17.230Z,95383.02
2017-12-23T23:00:49.855Z,95364.63
2017-12-23T23:03:17.582Z,95369.03
2017-12-23T23:05:45.300Z,95368.54
2017-12-23T23:08:13.066Z,95367.12
2017-12-23T23:10:40.763Z,95356.12
2017-12-23T23:13:08.571Z,95357.09
2017-12-23T23:15:36.397Z,95342.32
2017-12-23T23:18:04.203Z,95342.91
2017-12-23T23:20:32.762Z,95346.42
2017-12-23T23:23:00.556Z,95344.59
2017-12-23T23:25:28.275Z,95341.84
2017-12-23T23:27:56.068Z,95343.41
2017-12-23T23:30:23.767Z,95340.88
2017-12-23T23:32:51.479Z,95335.66
2017-12-23T23:35:19.575Z,95338.48
2017-12-23T23:37:47.621Z,95328.08
2017-12-23T23:40:15.304Z,95325.36
2017-12-23T23:42:43.024Z,95325.74
2017-12-23T23:45:10.729Z,95326.47
2017-12-23T23:47:38.409Z,95327.53
2017-12-23T23:50:06.180Z,95317.61
2017-12-23T23:52:33.874Z,95325.14
2017-12-23T23:55:01.570Z,95330.14
2017-12-23T23:57:29.310Z,95327.16
2017-12-23T23:59:57.068Z,95330.98
